sensor_id;sensor_type;location;lat;lon;timestamp;pressure;altitude;pressure_sealevel;temperature;humidity
51439;BME280;38816;51.142;-0.974;2023-08-17T00:01:14;100552.59;;;13.88;100.00
51439;BME280;38816;51.142;-0.974;2023-08-17T00:03:39;100559.41;;;13.81;100.00
51439;BME280;38816;51.142;-0.974;2023-08-17T00:06:05;100551.66;;;13.78;100.00
51439;BME280;38816;51.142;-0.974;2023-08-17T00:08:30;100556.78;;;13.74;100.00
51439;BME280;38816;51.142;-0.974;2023-08-17T00:10:56;100548.09;;;13.68;100.00
51439;BME280;38816;51.142;-0.974;2023-08-17T00:13:22;100544.66;;;13.66;100.00
51439;BME280;38816;51.142;-0.974;2023-08-17T00:15:47;100543.75;;;13.63;100.00
51439;BME280;38816;51.142;-0.974;2023-08-17T00:18:13;100542.00;;;13.57;100.00
51439;BME280;38816;51.142;-0.974;2023-08-17T00:20:38;100548.81;;;13.51;100.00
51439;BME280;38816;51.142;-0.974;2023-08-17T00:23:04;100542.72;;;13.46;100.00
51439;BME280;38816;51.142;-0.974;2023-08-17T00:25:29;100536.66;;;13.40;100.00
51439;BME280;38816;51.142;-0.974;2023-08-17T00:27:55;100539.25;;;13.37;100.00
51439;BME280;38816;51.142;-0.974;2023-08-17T00:30:20;100534.91;;;13.33;100.00
51439;BME280;38816;51.142;-0.974;2023-08-17T00:32:46;100533.13;;;13.31;100.00
51439;BME280;38816;51.142;-0.974;2023-08-17T00:35:11;100535.72;;;13.29;100.00
51439;BME280;38816;51.142;-0.974;2023-08-17T00:37:36;100536.53;;;13.25;100.00
51439;BME280;38816;51.142;-0.974;2023-08-17T00:40:02;100544.22;;;13.22;100.00
51439;BME280;38816;51.142;-0.974;2023-08-17T00:42:27;100547.59;;;13.18;100.00
51439;BME280;38816;51.142;-0.974;2023-08-17T00:44:53;100544.97;;;13.13;100.00
51439;BME280;38816;51.142;-0.974;2023-08-17T00:47:18;100543.19;;;13.08;100.00
51439;BME280;38816;51.142;-0.974;2023-08-17T00:49:44;100532.81;;;13.03;100.00
51439;BME280;38816;51.142;-0.974;2023-08-17T00:52:10;100533.63;;;13.01;100.00
51439;BME280;38816;51.142;-0.974;2023-08-17T00:54:35;100530.19;;;13.00;100.00
51439;BME280;38816;51.142;-0.974;2023-08-17T00:57:01;100526.75;;;13.00;100.00
51439;BME280;38816;51.142;-0.974;2023-08-17T00:59:29;100526.75;;;13.00;100.00
51439;BME280;38816;51.142;-0.974;2023-08-17T01:01:55;100537.06;;;13.00;100.00
51439;BME280;38816;51.142;-0.974;2023-08-17T01:04:23;100532.81;;;13.02;100.00
51439;BME280;38816;51.142;-0.974;2023-08-17T01:06:49;100536.25;;;13.02;100.00
51439;BME280;38816;51.142;-0.974;2023-08-17T01:09:14;100529.34;;;13.01;100.00
51439;BME280;38816;51.142;-0.974;2023-08-17T01:11:54;100526.75;;;13.00;100.00
51439;BME280;38816;51.142;-0.974;2023-08-17T01:16:56;100534.44;;;12.95;100.00
51439;BME280;38816;51.142;-0.974;2023-08-17T01:19:28;100531.84;;;12.93;100.00
51439;BME280;38816;51.142;-0.974;2023-08-17T01:21:57;100528.38;;;12.91;100.00
51439;BME280;38816;51.142;-0.974;2023-08-17T01:24:25;100529.22;;;12.90;100.00
51439;BME280;38816;51.142;-0.974;2023-08-17T01:26:52;100521.44;;;12.87;100.00
51439;BME280;38816;51.142;-0.974;2023-08-17T01:29:18;100516.25;;;12.84;100.00
51439;BME280;38816;51.142;-0.974;2023-08-17T01:32:15;100505.03;;;12.81;100.00
51439;BME280;38816;51.142;-0.974;2023-08-17T01:34:48;100511.00;;;12.75;100.00
51439;BME280;38816;51.142;-0.974;2023-08-17T01:37:18;100504.94;;;12.70;100.00
51439;BME280;38816;51.142;-0.974;2023-08-17T01:39:49;100508.31;;;12.67;100.00
51439;BME280;38816;51.142;-0.974;2023-08-17T01:42:16;100503.97;;;12.62;100.00
51439;BME280;38816;51.142;-0.974;2023-08-17T01:44:43;100499.63;;;12.59;100.00
51439;BME280;38816;51.142;-0.974;2023-08-17T01:47:08;100509.06;;;12.59;100.00
51439;BME280;38816;51.142;-0.974;2023-08-17T01:49:34;100502.25;;;12.61;100.00
51439;BME280;38816;51.142;-0.974;2023-08-17T01:52:00;100503.06;;;12.60;100.00
51439;BME280;38816;51.142;-0.974;2023-08-17T01:54:26;100506.50;;;12.59;100.00
51439;BME280;38816;51.142;-0.974;2023-08-17T01:56:51;100500.47;;;12.60;100.00
51439;BME280;38816;51.142;-0.974;2023-08-17T01:59:16;100503.97;;;12.65;100.00
51439;BME280;38816;51.142;-0.974;2023-08-17T02:01:42;100511.88;;;12.77;100.00
51439;BME280;38816;51.142;-0.974;2023-08-17T02:04:07;100520.66;;;12.95;100.00
51439;BME280;38816;51.142;-0.974;2023-08-17T02:06:33;100520.81;;;13.10;100.00
51439;BME280;38816;51.142;-0.974;2023-08-17T02:08:59;100518.47;;;13.28;100.00
51439;BME280;38816;51.142;-0.974;2023-08-17T02:11:24;100514.38;;;13.49;100.00
51439;BME280;38816;51.142;-0.974;2023-08-17T02:13:50;100514.50;;;13.65;100.00
51439;BME280;38816;51.142;-0.974;2023-08-17T02:16:15;100503.44;;;13.82;100.00
51439;BME280;38816;51.142;-0.974;2023-08-17T02:18:41;100505.25;;;13.93;100.00
51439;BME280;38816;51.142;-0.974;2023-08-17T02:21:06;100503.59;;;14.02;100.00
51439;BME280;38816;51.142;-0.974;2023-08-17T02:23:32;100502.75;;;14.07;100.00
51439;BME280;38816;51.142;-0.974;2023-08-17T02:25:57;100510.53;;;14.12;100.00
51439;BME280;38816;51.142;-0.974;2023-08-17T02:28:23;100510.56;;;14.15;100.00
51439;BME280;38816;51.142;-0.974;2023-08-17T02:30:48;100502.78;;;14.10;100.00
51439;BME280;38816;51.142;-0.974;2023-08-17T02:33:14;100510.47;;;14.01;100.00
51439;BME280;38816;51.142;-0.974;2023-08-17T02:35:39;100510.44;;;13.97;100.00
51439;BME280;38816;51.142;-0.974;2023-08-17T02:38:05;100504.44;;;14.04;100.00
51439;BME280;38816;51.142;-0.974;2023-08-17T02:40:30;100504.50;;;14.11;100.00
51439;BME280;38816;51.142;-0.974;2023-08-17T02:42:56;100500.22;;;14.18;100.00
51439;BME280;38816;51.142;-0.974;2023-08-17T02:45:21;100508.03;;;14.27;100.00
51439;BME280;38816;51.142;-0.974;2023-08-17T02:47:47;100504.63;;;14.33;100.00
51439;BME280;38816;51.142;-0.974;2023-08-17T02:50:12;100511.56;;;14.40;100.00
51439;BME280;38816;51.142;-0.974;2023-08-17T02:52:38;100506.44;;;14.48;100.00
51439;BME280;38816;51.142;-0.974;2023-08-17T02:55:04;100505.63;;;14.55;100.00
51439;BME280;38816;51.142;-0.974;2023-08-17T02:57:30;100507.34;;;14.59;100.00
51439;BME280;38816;51.142;-0.974;2023-08-17T02:59:55;100505.69;;;14.64;100.00
51439;BME280;38816;51.142;-0.974;2023-08-17T03:02:20;100503.09;;;14.70;100.00
51439;BME280;38816;51.142;-0.974;2023-08-17T03:04:46;100498.81;;;14.75;100.00
51439;BME280;38816;51.142;-0.974;2023-08-17T03:07:11;100504.00;;;14.78;100.00
51439;BME280;38816;51.142;-0.974;2023-08-17T03:09:37;100497.97;;;14.82;100.00
51439;BME280;38816;51.142;-0.974;2023-08-17T03:12:02;100514.34;;;14.86;100.00
51439;BME280;38816;51.142;-0.974;2023-08-17T03:14:28;100510.06;;;14.88;100.00
51439;BME280;38816;51.142;-0.974;2023-08-17T03:16:53;100513.50;;;14.90;100.00
51439;BME280;38816;51.142;-0.974;2023-08-17T03:19:19;100508.34;;;14.93;100.00
51439;BME280;38816;51.142;-0.974;2023-08-17T03:21:44;100511.81;;;14.95;100.00
51439;BME280;38816;51.142;-0.974;2023-08-17T03:24:10;100504.91;;;14.97;100.00
51439;BME280;38816;51.142;-0.974;2023-08-17T03:26:35;100509.25;;;15.00;100.00
51439;BME280;38816;51.142;-0.974;2023-08-17T03:29:00;100506.66;;;15.01;100.00
51439;BME280;38816;51.142;-0.974;2023-08-17T03:31:26;100510.97;;;15.01;100.00
51439;BME280;38816;51.142;-0.974;2023-08-17T03:33:51;100509.22;;;15.03;100.00
51439;BME280;38816;51.142;-0.974;2023-08-17T03:36:17;100505.78;;;15.07;100.00
51439;BME280;38816;51.142;-0.974;2023-08-17T03:38:42;100508.41;;;15.10;100.00
51439;BME280;38816;51.142;-0.974;2023-08-17T03:41:09;100500.63;;;15.13;100.00
51439;BME280;38816;51.142;-0.974;2023-08-17T03:43:35;100492.88;;;15.16;100.00
51439;BME280;38816;51.142;-0.974;2023-08-17T03:46:01;100501.50;;;15.19;100.00
51439;BME280;38816;51.142;-0.974;2023-08-17T03:48:27;100498.06;;;15.22;100.00
51439;BME280;38816;51.142;-0.974;2023-08-17T03:50:54;100508.44;;;15.24;100.00
51439;BME280;38816;51.142;-0.974;2023-08-17T03:53:20;100505.81;;;15.25;100.00
51439;BME280;38816;51.142;-0.974;2023-08-17T03:55:47;100513.63;;;15.27;100.00
51439;BME280;38816;51.142;-0.974;2023-08-17T03:58:12;100515.31;;;15.26;100.00
51439;BME280;38816;51.142;-0.974;2023-08-17T04:00:38;100507.56;;;15.26;100.00
51439;BME280;38816;51.142;-0.974;2023-08-17T04:03:06;100508.44;;;15.30;100.00
51439;BME280;38816;51.142;-0.974;2023-08-17T04:05:31;100511.03;;;15.31;100.00
51439;BME280;38816;51.142;-0.974;2023-08-17T04:07:58;100511.03;;;15.31;100.00
51439;BME280;38816;51.142;-0.974;2023-08-17T04:10:27;100504.13;;;15.33;100.00
51439;BME280;38816;51.142;-0.974;2023-08-17T04:12:52;100508.44;;;15.36;100.00
51439;BME280;38816;51.142;-0.974;2023-08-17T04:15:18;100500.69;;;15.36;100.00
51439;BME280;38816;51.142;-0.974;2023-08-17T04:17:43;100498.09;;;15.36;100.00
51439;BME280;38816;51.142;-0.974;2023-08-17T04:20:09;100492.91;;;15.36;100.00
51439;BME280;38816;51.142;-0.974;2023-08-17T04:22:35;100488.59;;;15.36;100.00
51439;BME280;38816;51.142;-0.974;2023-08-17T04:25:00;100484.25;;;15.40;100.00
51439;BME280;38816;51.142;-0.974;2023-08-17T04:27:25;100483.41;;;15.36;100.00
51439;BME280;38816;51.142;-0.974;2023-08-17T04:29:51;100482.53;;;15.37;100.00
51439;BME280;38816;51.142;-0.974;2023-08-17T04:32:16;100488.59;;;15.38;100.00
51439;BME280;38816;51.142;-0.974;2023-08-17T04:34:44;100487.72;;;15.39;100.00
51439;BME280;38816;51.142;-0.974;2023-08-17T04:37:10;100492.03;;;15.41;100.00
51439;BME280;38816;51.142;-0.974;2023-08-17T04:39:35;100488.59;;;15.42;100.00
51439;BME280;38816;51.142;-0.974;2023-08-17T04:42:02;100487.72;;;15.43;100.00
51439;BME280;38816;51.142;-0.974;2023-08-17T04:44:28;100487.72;;;15.43;100.00
51439;BME280;38816;51.142;-0.974;2023-08-17T04:46:53;100482.56;;;15.45;100.00
51439;BME280;38816;51.142;-0.974;2023-08-17T04:49:19;100487.72;;;15.45;100.00
51439;BME280;38816;51.142;-0.974;2023-08-17T04:51:45;100476.50;;;15.46;100.00
51439;BME280;38816;51.142;-0.974;2023-08-17T04:54:10;100479.09;;;15.46;100.00
51439;BME280;38816;51.142;-0.974;2023-08-17T04:56:35;100477.38;;;15.47;100.00
51439;BME280;38816;51.142;-0.974;2023-08-17T04:59:01;100479.09;;;15.51;100.00
51439;BME280;38816;51.142;-0.974;2023-08-17T05:01:26;100483.41;;;15.55;100.00
51439;BME280;38816;51.142;-0.974;2023-08-17T05:03:52;100480.81;;;15.55;100.00
51439;BME280;38816;51.142;-0.974;2023-08-17T05:06:17;100478.22;;;15.56;100.00
51439;BME280;38816;51.142;-0.974;2023-08-17T05:08:43;100482.53;;;15.57;100.00
51439;BME280;38816;51.142;-0.974;2023-08-17T05:11:08;100487.72;;;15.60;100.00
51439;BME280;38816;51.142;-0.974;2023-08-17T05:13:34;100474.78;;;15.65;100.00
51439;BME280;38816;51.142;-0.974;2023-08-17T05:15:59;100479.09;;;15.66;100.00
51439;BME280;38816;51.142;-0.974;2023-08-17T05:18:24;100488.63;;;15.67;100.00
51439;BME280;38816;51.142;-0.974;2023-08-17T05:20:50;100480.00;;;15.68;100.00
51439;BME280;38816;51.142;-0.974;2023-08-17T05:23:15;100485.16;;;15.73;100.00
51439;BME280;38816;51.142;-0.974;2023-08-17T05:25:41;100492.91;;;15.76;100.00
51439;BME280;38816;51.142;-0.974;2023-08-17T05:28:06;100489.50;;;15.77;100.00
51439;BME280;38816;51.142;-0.974;2023-08-17T05:30:32;100492.94;;;15.77;100.00
51439;BME280;38816;51.142;-0.974;2023-08-17T05:32:58;100494.66;;;15.81;100.00
51439;BME280;38816;51.142;-0.974;2023-08-17T05:35:24;100484.28;;;15.86;100.00
51439;BME280;38816;51.142;-0.974;2023-08-17T05:37:50;100492.06;;;15.87;100.00
51439;BME280;38816;51.142;-0.974;2023-08-17T05:40:16;100486.03;;;15.90;100.00
51439;BME280;38816;51.142;-0.974;2023-08-17T05:42:41;100488.59;;;15.94;100.00
51439;BME280;38816;51.142;-0.974;2023-08-17T05:45:07;100496.38;;;15.99;100.00
51439;BME280;38816;51.142;-0.974;2023-08-17T05:47:33;100494.63;;;16.01;100.00
51439;BME280;38816;51.142;-0.974;2023-08-17T05:49:58;100497.22;;;16.09;100.00
51439;BME280;38816;51.142;-0.974;2023-08-17T05:52:24;100495.47;;;16.14;100.00
51439;BME280;38816;51.142;-0.974;2023-08-17T05:54:49;100492.00;;;16.16;100.00
51439;BME280;38816;51.142;-0.974;2023-08-17T05:57:15;100492.00;;;16.21;100.00
51439;BME280;38816;51.142;-0.974;2023-08-17T05:59:40;100497.16;;;16.24;100.00
51439;BME280;38816;51.142;-0.974;2023-08-17T06:02:06;100502.34;;;16.27;100.00
51439;BME280;38816;51.142;-0.974;2023-08-17T06:04:31;100502.38;;;16.30;100.00
51439;BME280;38816;51.142;-0.974;2023-08-17T06:06:57;100504.06;;;16.31;100.00
51439;BME280;38816;51.142;-0.974;2023-08-17T06:09:22;100506.66;;;16.30;100.00
51439;BME280;38816;51.142;-0.974;2023-08-17T06:11:48;100498.88;;;16.31;100.00
51439;BME280;38816;51.142;-0.974;2023-08-17T06:14:13;100503.19;;;16.35;100.00
51439;BME280;38816;51.142;-0.974;2023-08-17T06:16:39;100490.22;;;16.35;100.00
51439;BME280;38816;51.142;-0.974;2023-08-17T06:19:04;100496.25;;;16.40;100.00
51439;BME280;38816;51.142;-0.974;2023-08-17T06:21:30;100486.72;;;16.45;100.00
51439;BME280;38816;51.142;-0.974;2023-08-17T06:23:55;100495.31;;;16.57;100.00
51439;BME280;38816;51.142;-0.974;2023-08-17T06:26:21;100500.50;;;16.72;100.00
51439;BME280;38816;51.142;-0.974;2023-08-17T06:28:46;100489.16;;;16.88;100.00
51439;BME280;38816;51.142;-0.974;2023-08-17T06:31:14;100495.09;;;17.10;100.00
51439;BME280;38816;51.142;-0.974;2023-08-17T06:33:40;100497.53;;;17.32;100.00
51439;BME280;38816;51.142;-0.974;2023-08-17T06:36:05;100495.66;;;17.54;100.00
51439;BME280;38816;51.142;-0.974;2023-08-17T06:38:31;100505.13;;;17.61;100.00
51439;BME280;38816;51.142;-0.974;2023-08-17T06:40:56;100500.81;;;17.55;100.00
51439;BME280;38816;51.142;-0.974;2023-08-17T06:43:21;100508.66;;;17.54;100.00
51439;BME280;38816;51.142;-0.974;2023-08-17T06:45:47;100506.94;;;17.53;100.00
51439;BME280;38816;51.142;-0.974;2023-08-17T06:48:12;100509.50;;;17.57;100.00
51439;BME280;38816;51.142;-0.974;2023-08-17T06:50:38;100501.66;;;17.60;100.00
51439;BME280;38816;51.142;-0.974;2023-08-17T06:53:04;100500.75;;;17.64;100.00
51439;BME280;38816;51.142;-0.974;2023-08-17T06:55:30;100506.78;;;17.68;100.00
51439;BME280;38816;51.142;-0.974;2023-08-17T06:57:57;100505.84;;;17.81;100.00
51439;BME280;38816;51.142;-0.974;2023-08-17T07:00:22;100503.13;;;17.95;100.00
51439;BME280;38816;51.142;-0.974;2023-08-17T07:02:48;100509.88;;;18.13;100.00
51439;BME280;38816;51.142;-0.974;2023-08-17T07:05:15;100507.09;;;18.30;100.00
51439;BME280;38816;51.142;-0.974;2023-08-17T07:07:40;100505.19;;;18.44;100.00
51439;BME280;38816;51.142;-0.974;2023-08-17T07:10:06;100496.50;;;18.46;100.00
51439;BME280;38816;51.142;-0.974;2023-08-17T07:12:32;100498.22;;;18.46;100.00
51439;BME280;38816;51.142;-0.974;2023-08-17T07:14:58;100498.38;;;18.32;100.00
51439;BME280;38816;51.142;-0.974;2023-08-17T07:17:23;100497.56;;;18.27;100.00
51439;BME280;38816;51.142;-0.974;2023-08-17T07:19:49;100495.81;;;18.28;100.00
51439;BME280;38816;51.142;-0.974;2023-08-17T07:22:15;100494.00;;;18.37;100.00
51439;BME280;38816;51.142;-0.974;2023-08-17T07:24:41;100487.91;;;18.38;100.00
51439;BME280;38816;51.142;-0.974;2023-08-17T07:27:07;100489.66;;;18.38;100.00
51439;BME280;38816;51.142;-0.974;2023-08-17T07:29:33;100483.72;;;18.28;100.00
51439;BME280;38816;51.142;-0.974;2023-08-17T07:31:58;100486.44;;;18.16;100.00
51439;BME280;38816;51.142;-0.974;2023-08-17T07:34:30;100479.59;;;18.04;100.00
51439;BME280;38816;51.142;-0.974;2023-08-17T07:36:57;100486.63;;;17.98;100.00
51439;BME280;38816;51.142;-0.974;2023-08-17T07:39:23;100480.63;;;17.92;100.00
51439;BME280;38816;51.142;-0.974;2023-08-17T07:41:48;100482.41;;;17.86;100.00
51439;BME280;38816;51.142;-0.974;2023-08-17T07:44:13;100474.56;;;17.87;100.00
51439;BME280;38816;51.142;-0.974;2023-08-17T07:46:39;100478.00;;;17.94;100.00
51439;BME280;38816;51.142;-0.974;2023-08-17T07:49:05;100473.53;;;18.04;100.00
51439;BME280;38816;51.142;-0.974;2023-08-17T07:51:30;100476.91;;;18.13;100.00
51439;BME280;38816;51.142;-0.974;2023-08-17T07:53:59;100464.78;;;18.12;100.00
51439;BME280;38816;51.142;-0.974;2023-08-17T07:56:27;100461.22;;;18.21;100.00
51439;BME280;38816;51.142;-0.974;2023-08-17T07:58:56;100461.19;;;18.24;100.00
51439;BME280;38816;51.142;-0.974;2023-08-17T08:01:22;100462.06;;;18.25;100.00
51439;BME280;38816;51.142;-0.974;2023-08-17T08:03:47;100456.78;;;18.28;100.00
51439;BME280;38816;51.142;-0.974;2023-08-17T08:06:13;100459.38;;;18.31;100.00
51439;BME280;38816;51.142;-0.974;2023-08-17T08:08:39;100454.09;;;18.38;100.00
51439;BME280;38816;51.142;-0.974;2023-08-17T08:11:05;100460.97;;;18.41;100.00
51439;BME280;38816;51.142;-0.974;2023-08-17T08:13:31;100466.13;;;18.45;100.00
51439;BME280;38816;51.142;-0.974;2023-08-17T08:15:58;100471.28;;;18.50;100.00
51439;BME280;38816;51.142;-0.974;2023-08-17T08:18:24;100471.19;;;18.58;100.00
51439;BME280;38816;51.142;-0.974;2023-08-17T08:20:49;100473.75;;;18.61;100.00
51439;BME280;38816;51.142;-0.974;2023-08-17T08:23:15;100471.06;;;18.67;100.00
51439;BME280;38816;51.142;-0.974;2023-08-17T08:25:40;100471.91;;;18.72;100.00
51439;BME280;38816;51.142;-0.974;2023-08-17T08:28:06;100476.19;;;18.76;100.00
51439;BME280;38816;51.142;-0.974;2023-08-17T08:30:31;100477.84;;;18.83;100.00
51439;BME280;38816;51.142;-0.974;2023-08-17T08:32:57;100478.59;;;18.90;100.00
51439;BME280;38816;51.142;-0.974;2023-08-17T08:35:24;100470.69;;;18.97;100.00
51439;BME280;38816;51.142;-0.974;2023-08-17T08:37:50;100476.66;;;19.06;100.00
51439;BME280;38816;51.142;-0.974;2023-08-17T08:40:16;100479.13;;;19.13;100.00
51439;BME280;38816;51.142;-0.974;2023-08-17T08:42:42;100489.38;;;19.26;100.00
51439;BME280;38816;51.142;-0.974;2023-08-17T08:45:08;100478.00;;;19.30;100.00
51439;BME280;38816;51.142;-0.974;2023-08-17T08:47:36;100480.41;;;19.43;100.00
51439;BME280;38816;51.142;-0.974;2023-08-17T08:50:04;100476.75;;;19.54;100.00
51439;BME280;38816;51.142;-0.974;2023-08-17T08:55:10;100479.00;;;19.77;100.00
51439;BME280;38816;51.142;-0.974;2023-08-17T08:57:36;100466.63;;;19.88;100.00
51439;BME280;38816;51.142;-0.974;2023-08-17T09:00:02;100468.22;;;19.96;100.00
51439;BME280;38816;51.142;-0.974;2023-08-17T09:02:29;100476.69;;;20.08;100.00
51439;BME280;38816;51.142;-0.974;2023-08-17T09:04:55;100473.91;;;20.18;100.00
51439;BME280;38816;51.142;-0.974;2023-08-17T09:07:22;100467.56;;;20.30;100.00
51439;BME280;38816;51.142;-0.974;2023-08-17T09:09:48;100471.59;;;20.46;100.00
51439;BME280;38816;51.142;-0.974;2023-08-17T09:12:13;100472.00;;;20.70;100.00
51439;BME280;38816;51.142;-0.974;2023-08-17T09:14:39;100473.34;;;20.88;100.00
51439;BME280;38816;51.142;-0.974;2023-08-17T09:17:06;100468.75;;;20.97;100.00
51439;BME280;38816;51.142;-0.974;2023-08-17T09:19:32;100469.44;;;21.06;100.00
51439;BME280;38816;51.142;-0.974;2023-08-17T09:21:59;100466.78;;;21.09;100.00
51439;BME280;38816;51.142;-0.974;2023-08-17T09:24:29;100470.03;;;21.18;100.00
51439;BME280;38816;51.142;-0.974;2023-08-17T09:26:58;100465.47;;;21.27;100.00
51439;BME280;38816;51.142;-0.974;2023-08-17T09:29:25;100458.44;;;21.29;100.00
51439;BME280;38816;51.142;-0.974;2023-08-17T09:31:51;100461.78;;;21.37;100.00
51439;BME280;38816;51.142;-0.974;2023-08-17T09:34:16;100457.09;;;21.49;100.00
51439;BME280;38816;51.142;-0.974;2023-08-17T09:36:42;100450.47;;;21.70;100.00
51439;BME280;38816;51.142;-0.974;2023-08-17T09:39:10;100449.09;;;21.88;100.00
51439;BME280;38816;51.142;-0.974;2023-08-17T09:41:41;100451.81;;;22.18;100.00
51439;BME280;38816;51.142;-0.974;2023-08-17T09:44:06;100449.06;;;22.54;99.49
51439;BME280;38816;51.142;-0.974;2023-08-17T09:46:32;100462.50;;;22.71;97.63
51439;BME280;38816;51.142;-0.974;2023-08-17T09:48:57;100453.75;;;22.72;95.40
51439;BME280;38816;51.142;-0.974;2023-08-17T09:51:23;100451.94;;;22.74;94.04
51439;BME280;38816;51.142;-0.974;2023-08-17T09:53:52;100444.69;;;22.82;93.65
51439;BME280;38816;51.142;-0.974;2023-08-17T09:56:22;100441.91;;;22.88;92.04
51439;BME280;38816;51.142;-0.974;2023-08-17T09:58:49;100447.03;;;22.93;92.93
51439;BME280;38816;51.142;-0.974;2023-08-17T10:01:15;100450.28;;;23.01;94.31
51439;BME280;38816;51.142;-0.974;2023-08-17T10:03:43;100447.75;;;22.96;91.17
51439;BME280;38816;51.142;-0.974;2023-08-17T10:06:13;100450.34;;;22.98;91.75
51439;BME280;38816;51.142;-0.974;2023-08-17T10:08:46;100443.44;;;22.95;93.20
51439;BME280;38816;51.142;-0.974;2023-08-17T10:11:12;100453.00;;;22.96;91.18
51439;BME280;38816;51.142;-0.974;2023-08-17T10:13:43;100444.34;;;22.94;92.92
51439;BME280;38816;51.142;-0.974;2023-08-17T10:16:26;100439.03;;;22.96;93.67
51439;BME280;38816;51.142;-0.974;2023-08-17T10:21:32;100420.09;;;22.86;93.14
51439;BME280;38816;51.142;-0.974;2023-08-17T10:24:02;100410.34;;;22.91;88.55
51439;BME280;38816;51.142;-0.974;2023-08-17T10:26:28;100417.53;;;23.13;87.24
51439;BME280;38816;51.142;-0.974;2023-08-17T10:28:55;100419.06;;;23.46;86.35
51439;BME280;38816;51.142;-0.974;2023-08-17T10:31:24;100423.56;;;23.68;83.30
51439;BME280;38816;51.142;-0.974;2023-08-17T10:33:50;100424.69;;;23.86;84.64
51439;BME280;38816;51.142;-0.974;2023-08-17T10:36:16;100424.69;;;24.11;83.69
51439;BME280;38816;51.142;-0.974;2023-08-17T10:38:42;100419.34;;;24.37;81.45
51439;BME280;38816;51.142;-0.974;2023-08-17T10:41:14;100417.84;;;24.54;75.07
51439;BME280;38816;51.142;-0.974;2023-08-17T10:43:59;100417.81;;;24.55;72.49
51439;BME280;38816;51.142;-0.974;2023-08-17T10:46:36;100418.88;;;24.49;74.74
51439;BME280;38816;51.142;-0.974;2023-08-17T10:49:06;100424.47;;;24.64;70.34
51439;BME280;38816;51.142;-0.974;2023-08-17T10:51:35;100426.78;;;24.71;72.14
51439;BME280;38816;51.142;-0.974;2023-08-17T10:54:02;100434.50;;;24.76;70.16
51439;BME280;38816;51.142;-0.974;2023-08-17T10:56:29;100434.13;;;24.63;68.67
51439;BME280;38816;51.142;-0.974;2023-08-17T10:58:59;100439.31;;;24.65;68.55
51439;BME280;38816;51.142;-0.974;2023-08-17T11:01:35;100441.06;;;24.42;70.54
51439;BME280;38816;51.142;-0.974;2023-08-17T11:04:19;100435.72;;;24.20;74.06
51439;BME280;38816;51.142;-0.974;2023-08-17T11:06:46;100434.66;;;23.76;73.53
51439;BME280;38816;51.142;-0.974;2023-08-17T11:09:11;100446.31;;;23.42;75.73
51439;BME280;38816;51.142;-0.974;2023-08-17T11:11:37;100442.97;;;23.11;78.80
51439;BME280;38816;51.142;-0.974;2023-08-17T11:14:03;100440.16;;;22.87;80.90
51439;BME280;38816;51.142;-0.974;2023-08-17T11:16:28;100437.88;;;23.06;81.55
51439;BME280;38816;51.142;-0.974;2023-08-17T11:18:54;100425.53;;;23.61;80.68
51439;BME280;38816;51.142;-0.974;2023-08-17T11:21:23;100430.69;;;24.14;73.02
51439;BME280;38816;51.142;-0.974;2023-08-17T11:23:49;100428.50;;;24.50;73.06
51439;BME280;38816;51.142;-0.974;2023-08-17T11:26:19;100420.34;;;24.57;72.52
51439;BME280;38816;51.142;-0.974;2023-08-17T11:28:45;100426.75;;;24.73;72.57
51439;BME280;38816;51.142;-0.974;2023-08-17T11:31:12;100423.38;;;24.91;72.96
51439;BME280;38816;51.142;-0.974;2023-08-17T11:33:39;100424.25;;;24.92;69.39
51439;BME280;38816;51.142;-0.974;2023-08-17T11:36:08;100429.69;;;24.87;66.34
51439;BME280;38816;51.142;-0.974;2023-08-17T11:38:37;100423.88;;;24.79;66.59
51439;BME280;38816;51.142;-0.974;2023-08-17T11:41:04;100423.88;;;25.23;68.84
51439;BME280;38816;51.142;-0.974;2023-08-17T11:43:32;100421.28;;;25.64;68.76
51439;BME280;38816;51.142;-0.974;2023-08-17T11:46:00;100424.63;;;26.08;66.83
51439;BME280;38816;51.142;-0.974;2023-08-17T11:48:25;100414.19;;;26.25;65.25
51439;BME280;38816;51.142;-0.974;2023-08-17T11:50:52;100417.03;;;26.21;62.12
51439;BME280;38816;51.142;-0.974;2023-08-17T11:53:18;100417.63;;;26.07;63.05
51439;BME280;38816;51.142;-0.974;2023-08-17T11:55:44;100410.41;;;26.12;63.82
51439;BME280;38816;51.142;-0.974;2023-08-17T11:58:10;100406.50;;;26.21;62.95
51439;BME280;38816;51.142;-0.974;2023-08-17T12:00:43;100393.66;;;26.32;61.77
51439;BME280;38816;51.142;-0.974;2023-08-17T12:03:15;100396.81;;;26.21;60.57
51439;BME280;38816;51.142;-0.974;2023-08-17T12:05:42;100393.00;;;25.89;62.57
51439;BME280;38816;51.142;-0.974;2023-08-17T12:08:08;100398.63;;;25.60;64.66
51439;BME280;38816;51.142;-0.974;2023-08-17T12:10:36;100402.84;;;25.43;62.67
51439;BME280;38816;51.142;-0.974;2023-08-17T12:13:02;100401.44;;;25.14;64.37
51439;BME280;38816;51.142;-0.974;2023-08-17T12:15:34;100390.53;;;25.23;66.06
51439;BME280;38816;51.142;-0.974;2023-08-17T12:18:02;100385.75;;;25.54;63.99
51439;BME280;38816;51.142;-0.974;2023-08-17T12:20:28;100392.41;;;25.83;64.67
51439;BME280;38816;51.142;-0.974;2023-08-17T12:22:57;100387.13;;;25.83;60.74
51439;BME280;38816;51.142;-0.974;2023-08-17T12:25:23;100377.09;;;25.70;61.29
51439;BME280;38816;51.142;-0.974;2023-08-17T12:27:49;100379.81;;;25.69;63.00
51439;BME280;38816;51.142;-0.974;2023-08-17T12:30:25;100378.66;;;25.76;63.80
51439;BME280;38816;51.142;-0.974;2023-08-17T12:32:51;100379.53;;;25.75;63.03
51439;BME280;38816;51.142;-0.974;2023-08-17T12:35:16;100376.44;;;25.65;62.48
51439;BME280;38816;51.142;-0.974;2023-08-17T12:37:42;100381.59;;;25.68;64.41